sensor_id;sensor_type;location;lat;lon;timestamp;pressure;altitude;pressure_sealevel;temperature;humidity
58769;BME280;44536;47.474;19.056;2022-10-04T00:02:17;100830.16;;;10.78;76.81
58769;BME280;44536;47.474;19.056;2022-10-04T00:05:22;100829.50;;;10.75;77.08
58769;BME280;44536;47.474;19.056;2022-10-04T00:11:28;100839.16;;;10.63;77.90
58769;BME280;44536;47.474;19.056;2022-10-04T00:14:32;100840.94;;;10.63;77.99
58769;BME280;44536;47.474;19.056;2022-10-04T00:17:36;100845.41;;;10.62;78.21
58769;BME280;44536;47.474;19.056;2022-10-04T00:23:56;100851.78;;;10.59;78.89
58769;BME280;44536;47.474;19.056;2022-10-04T00:27:15;100841.47;;;10.55;78.86
58769;BME280;44536;47.474;19.056;2022-10-04T00:30:20;100838.62;;;10.58;79.05
58769;BME280;44536;47.474;19.056;2022-10-04T00:33:40;100843.37;;;10.53;79.62
58769;BME280;44536;47.474;19.056;2022-10-04T00:36:43;100844.75;;;10.46;79.75
58769;BME280;44536;47.474;19.056;2022-10-04T00:39:54;100831.69;;;10.43;80.33
58769;BME280;44536;47.474;19.056;2022-10-04T00:43:03;100834.34;;;10.30;80.76
58769;BME280;44536;47.474;19.056;2022-10-04T00:46:10;100836.25;;;10.28;81.21
58769;BME280;44536;47.474;19.056;2022-10-04T00:49:15;100830.53;;;10.21;81.65
58769;BME280;44536;47.474;19.056;2022-10-04T00:52:19;100832.00;;;10.25;81.59
58769;BME280;44536;47.474;19.056;2022-10-04T00:58:28;100823.84;;;10.28;81.82
58769;BME280;44536;47.474;19.056;2022-10-04T01:01:32;100821.00;;;10.32;81.88
58769;BME280;44536;47.474;19.056;2022-10-04T01:04:40;100818.34;;;10.32;81.99
58769;BME280;44536;47.474;19.056;2022-10-04T01:07:45;100818.34;;;10.32;82.13
58769;BME280;44536;47.474;19.056;2022-10-04T01:10:49;100827.25;;;10.43;81.29
58769;BME280;44536;47.474;19.056;2022-10-04T01:16:56;100810.06;;;10.49;81.44
58769;BME280;44536;47.474;19.056;2022-10-04T01:19:59;100811.53;;;10.40;81.66
58769;BME280;44536;47.474;19.056;2022-10-04T01:23:01;100799.69;;;10.33;82.16
58769;BME280;44536;47.474;19.056;2022-10-04T01:26:04;100797.09;;;10.19;83.15
58769;BME280;44536;47.474;19.056;2022-10-04T01:32:15;100798.63;;;9.96;84.38
58769;BME280;44536;47.474;19.056;2022-10-04T01:35:17;100794.47;;;9.92;84.90
58769;BME280;44536;47.474;19.056;2022-10-04T01:38:21;100796.31;;;10.04;84.92
58769;BME280;44536;47.474;19.056;2022-10-04T01:41:24;100795.06;;;10.10;84.19
58769;BME280;44536;47.474;19.056;2022-10-04T01:47:33;100790.03;;;10.19;84.34
58769;BME280;44536;47.474;19.056;2022-10-04T01:50:40;100796.72;;;10.25;84.18
58769;BME280;44536;47.474;19.056;2022-10-04T01:53:46;100792.91;;;10.29;83.98
58769;BME280;44536;47.474;19.056;2022-10-04T01:57:04;100789.50;;;10.27;84.14
58769;BME280;44536;47.474;19.056;2022-10-04T02:00:08;100792.72;;;10.05;85.30
58769;BME280;44536;47.474;19.056;2022-10-04T02:03:21;100795.06;;;10.10;85.47
58769;BME280;44536;47.474;19.056;2022-10-04T02:06:27;100790.81;;;10.07;85.59
58769;BME280;44536;47.474;19.056;2022-10-04T02:09:31;100797.25;;;10.03;86.22
58769;BME280;44536;47.474;19.056;2022-10-04T02:12:34;100798.81;;;9.93;86.64
58769;BME280;44536;47.474;19.056;2022-10-04T02:15:39;100798.91;;;9.79;87.81
58769;BME280;44536;47.474;19.056;2022-10-04T02:18:41;100805.91;;;10.19;84.85
58769;BME280;44536;47.474;19.056;2022-10-04T02:21:45;100801.91;;;10.52;83.43
58769;BME280;44536;47.474;19.056;2022-10-04T02:24:47;100804.88;;;10.60;82.69
58769;BME280;44536;47.474;19.056;2022-10-04T02:27:51;100810.94;;;10.62;82.29
58769;BME280;44536;47.474;19.056;2022-10-04T02:30:53;100801.91;;;10.65;82.19
58769;BME280;44536;47.474;19.056;2022-10-04T02:34:15;100802.03;;;10.63;82.50
58769;BME280;44536;47.474;19.056;2022-10-04T02:37:18;100812.41;;;10.66;81.93
58769;BME280;44536;47.474;19.056;2022-10-04T02:40:25;100811.88;;;10.61;82.59
58769;BME280;44536;47.474;19.056;2022-10-04T02:43:41;100805.94;;;10.57;82.57
58769;BME280;44536;47.474;19.056;2022-10-04T02:50:07;100805.50;;;10.51;83.28
58769;BME280;44536;47.474;19.056;2022-10-04T02:56:18;100805.63;;;10.49;83.55
58769;BME280;44536;47.474;19.056;2022-10-04T02:59:23;100797.69;;;10.37;84.18
58769;BME280;44536;47.474;19.056;2022-10-04T03:02:26;100801.16;;;10.24;84.70
58769;BME280;44536;47.474;19.056;2022-10-04T03:05:31;100801.84;;;10.14;86.11
58769;BME280;44536;47.474;19.056;2022-10-04T03:08:34;100798.34;;;10.13;85.92
58769;BME280;44536;47.474;19.056;2022-10-04T03:11:37;100797.47;;;9.87;87.99
58769;BME280;44536;47.474;19.056;2022-10-04T03:14:41;100799.47;;;9.84;88.15
58769;BME280;44536;47.474;19.056;2022-10-04T03:17:44;100802.75;;;9.87;87.86
58769;BME280;44536;47.474;19.056;2022-10-04T03:20:46;100806.41;;;9.72;89.02
58769;BME280;44536;47.474;19.056;2022-10-04T03:23:49;100797.97;;;9.92;88.01
58769;BME280;44536;47.474;19.056;2022-10-04T03:26:56;100794.06;;;10.25;86.17
58769;BME280;44536;47.474;19.056;2022-10-04T03:29:59;100795.88;;;10.24;86.05
58769;BME280;44536;47.474;19.056;2022-10-04T03:33:02;100795.88;;;10.37;85.62
58769;BME280;44536;47.474;19.056;2022-10-04T03:36:06;100806.69;;;10.47;84.89
58769;BME280;44536;47.474;19.056;2022-10-04T03:39:08;100805.72;;;10.48;84.83
58769;BME280;44536;47.474;19.056;2022-10-04T03:42:15;100802.87;;;10.51;84.63
58769;BME280;44536;47.474;19.056;2022-10-04T03:45:19;100799.47;;;10.36;85.36
58769;BME280;44536;47.474;19.056;2022-10-04T03:48:35;100803.19;;;10.34;85.89
58769;BME280;44536;47.474;19.056;2022-10-04T03:51:38;100799.28;;;10.39;85.64
58769;BME280;44536;47.474;19.056;2022-10-04T03:54:44;100801.47;;;10.45;85.51
58769;BME280;44536;47.474;19.056;2022-10-04T03:57:48;100805.41;;;10.52;84.94
58769;BME280;44536;47.474;19.056;2022-10-04T04:01:34;100800.53;;;10.46;85.37
58769;BME280;44536;47.474;19.056;2022-10-04T04:10:46;100782.19;;;10.43;85.45
58769;BME280;44536;47.474;19.056;2022-10-04T04:13:53;100790.13;;;10.43;85.96
58769;BME280;44536;47.474;19.056;2022-10-04T04:20:25;100790.88;;;10.45;84.86
58769;BME280;44536;47.474;19.056;2022-10-04T04:23:30;100795.00;;;10.49;84.65
58769;BME280;44536;47.474;19.056;2022-10-04T04:26:41;100794.59;;;10.55;84.39
58769;BME280;44536;47.474;19.056;2022-10-04T04:29:46;100802.56;;;10.55;84.48
58769;BME280;44536;47.474;19.056;2022-10-04T04:32:51;100816.78;;;10.67;83.82
58769;BME280;44536;47.474;19.056;2022-10-04T04:36:01;100811.03;;;10.60;83.75
58769;BME280;44536;47.474;19.056;2022-10-04T04:39:08;100815.69;;;10.57;84.48
58769;BME280;44536;47.474;19.056;2022-10-04T04:42:30;100819.00;;;10.60;84.48
58769;BME280;44536;47.474;19.056;2022-10-04T04:45:33;100818.16;;;10.60;84.56
58769;BME280;44536;47.474;19.056;2022-10-04T04:48:37;100809.44;;;10.58;84.96
58769;BME280;44536;47.474;19.056;2022-10-04T04:51:39;100804.16;;;10.58;85.50
58769;BME280;44536;47.474;19.056;2022-10-04T04:54:42;100809.44;;;10.71;84.77
58769;BME280;44536;47.474;19.056;2022-10-04T04:57:47;100813.06;;;10.82;84.41
58769;BME280;44536;47.474;19.056;2022-10-04T05:00:55;100819.41;;;10.92;84.10
58769;BME280;44536;47.474;19.056;2022-10-04T05:07:03;100826.16;;;11.22;82.43
58769;BME280;44536;47.474;19.056;2022-10-04T05:10:19;100836.97;;;11.32;81.80
58769;BME280;44536;47.474;19.056;2022-10-04T05:13:22;100828.09;;;11.44;81.15
58769;BME280;44536;47.474;19.056;2022-10-04T05:19:42;100832.75;;;11.53;81.62
58769;BME280;44536;47.474;19.056;2022-10-04T05:22:45;100840.28;;;11.59;81.04
58769;BME280;44536;47.474;19.056;2022-10-04T05:25:48;100844.41;;;11.63;80.73
58769;BME280;44536;47.474;19.056;2022-10-04T05:28:51;100854.91;;;11.65;80.53
58769;BME280;44536;47.474;19.056;2022-10-04T05:35:18;100856.81;;;11.75;80.28
58769;BME280;44536;47.474;19.056;2022-10-04T05:44:54;100867.69;;;11.96;79.37
58769;BME280;44536;47.474;19.056;2022-10-04T05:47:58;100872.19;;;11.96;79.87
58769;BME280;44536;47.474;19.056;2022-10-04T05:51:01;100879.78;;;12.00;79.67
58769;BME280;44536;47.474;19.056;2022-10-04T05:54:13;100885.72;;;12.04;79.28
58769;BME280;44536;47.474;19.056;2022-10-04T05:57:25;100886.22;;;12.33;78.18
58769;BME280;44536;47.474;19.056;2022-10-04T06:00:38;100893.38;;;13.01;76.43
58769;BME280;44536;47.474;19.056;2022-10-04T06:03:59;100884.06;;;16.20;63.49
58769;BME280;44536;47.474;19.056;2022-10-04T06:22:59;100908.37;;;13.02;75.02
58769;BME280;44536;47.474;19.056;2022-10-04T06:26:06;100899.06;;;13.07;75.06
58769;BME280;44536;47.474;19.056;2022-10-04T06:29:15;100914.28;;;13.29;74.49
58769;BME280;44536;47.474;19.056;2022-10-04T06:35:54;100911.59;;;13.40;73.81
58769;BME280;44536;47.474;19.056;2022-10-04T06:42:29;100913.66;;;13.25;74.78
58769;BME280;44536;47.474;19.056;2022-10-04T06:55:18;100902.41;;;13.44;74.45
58769;BME280;44536;47.474;19.056;2022-10-04T06:58:35;100911.00;;;13.25;75.40
58769;BME280;44536;47.474;19.056;2022-10-04T07:01:52;100910.28;;;13.35;75.32
58769;BME280;44536;47.474;19.056;2022-10-04T07:05:20;100914.87;;;13.33;75.70
58769;BME280;44536;47.474;19.056;2022-10-04T07:08:35;100912.06;;;13.56;75.09
58769;BME280;44536;47.474;19.056;2022-10-04T07:11:45;100920.28;;;13.65;74.14
58769;BME280;44536;47.474;19.056;2022-10-04T07:14:51;100927.31;;;13.66;74.34
58769;BME280;44536;47.474;19.056;2022-10-04T07:17:55;100932.94;;;13.51;75.24
58769;BME280;44536;47.474;19.056;2022-10-04T07:21:04;100937.88;;;13.34;75.79
58769;BME280;44536;47.474;19.056;2022-10-04T07:24:10;100948.16;;;13.27;76.03
58769;BME280;44536;47.474;19.056;2022-10-04T07:27:19;100947.22;;;13.50;75.52
58769;BME280;44536;47.474;19.056;2022-10-04T07:30:22;100947.03;;;13.97;73.94
58769;BME280;44536;47.474;19.056;2022-10-04T07:33:25;100942.44;;;13.99;73.60
58769;BME280;44536;47.474;19.056;2022-10-04T07:36:30;100943.50;;;14.39;71.91
58769;BME280;44536;47.474;19.056;2022-10-04T07:42:51;100954.38;;;14.58;70.73
58769;BME280;44536;47.474;19.056;2022-10-04T07:46:03;100954.06;;;14.73;70.21
58769;BME280;44536;47.474;19.056;2022-10-04T07:49:14;100951.34;;;15.05;69.42
58769;BME280;44536;47.474;19.056;2022-10-04T07:58:33;100949.59;;;14.41;69.60
58769;BME280;44536;47.474;19.056;2022-10-04T08:01:53;100954.25;;;14.17;70.46
58769;BME280;44536;47.474;19.056;2022-10-04T08:21:15;100964.19;;;14.58;68.80
58769;BME280;44536;47.474;19.056;2022-10-04T08:30:30;100987.62;;;14.86;66.25
58769;BME280;44536;47.474;19.056;2022-10-04T08:33:55;100999.00;;;15.09;65.86
58769;BME280;44536;47.474;19.056;2022-10-04T08:40:15;100987.69;;;15.17;64.70
58769;BME280;44536;47.474;19.056;2022-10-04T08:56:47;101007.31;;;15.06;63.47
58769;BME280;44536;47.474;19.056;2022-10-04T09:06:36;100990.94;;;15.41;63.29
58769;BME280;44536;47.474;19.056;2022-10-04T09:12:47;100990.53;;;16.16;60.65
58769;BME280;44536;47.474;19.056;2022-10-04T09:16:03;100986.59;;;16.20;60.89
58769;BME280;44536;47.474;19.056;2022-10-04T09:19:27;100960.03;;;16.58;58.76
58769;BME280;44536;47.474;19.056;2022-10-04T09:26:23;100982.87;;;16.81;57.55
58769;BME280;44536;47.474;19.056;2022-10-04T09:39:07;101000.97;;;16.29;57.93
58769;BME280;44536;47.474;19.056;2022-10-04T09:49:10;101010.47;;;16.62;57.74
58769;BME280;44536;47.474;19.056;2022-10-04T10:05:12;101038.41;;;16.19;58.79
58769;BME280;44536;47.474;19.056;2022-10-04T10:15:15;101032.84;;;15.41;60.78
58769;BME280;44536;47.474;19.056;2022-10-04T10:21:35;101043.47;;;15.31;62.17
58769;BME280;44536;47.474;19.056;2022-10-04T10:28:04;101037.28;;;15.31;61.43
58769;BME280;44536;47.474;19.056;2022-10-04T10:31:12;101041.69;;;15.41;60.88
58769;BME280;44536;47.474;19.056;2022-10-04T10:51:14;101027.66;;;18.38;52.59
58769;BME280;44536;47.474;19.056;2022-10-04T11:07:43;101024.28;;;19.25;48.95
58769;BME280;44536;47.474;19.056;2022-10-04T11:30:36;101020.31;;;24.50;35.71
58769;BME280;44536;47.474;19.056;2022-10-04T11:37:16;101026.91;;;21.91;40.92
58769;BME280;44536;47.474;19.056;2022-10-04T11:43:47;101027.56;;;19.55;46.24
58769;BME280;44536;47.474;19.056;2022-10-04T11:47:00;101032.38;;;18.09;47.60
58769;BME280;44536;47.474;19.056;2022-10-04T12:02:45;101026.03;;;23.52;36.93
58769;BME280;44536;47.474;19.056;2022-10-04T12:05:56;101019.44;;;22.18;39.32
58769;BME280;44536;47.474;19.056;2022-10-04T12:12:26;101020.66;;;21.03;42.96
58769;BME280;44536;47.474;19.056;2022-10-04T12:15:47;101012.38;;;22.08;43.15
58769;BME280;44536;47.474;19.056;2022-10-04T12:29:09;101025.81;;;23.91;38.95
58769;BME280;44536;47.474;19.056;2022-10-04T12:32:17;101026.94;;;24.26;37.74
58769;BME280;44536;47.474;19.056;2022-10-04T12:42:41;101025.94;;;25.34;34.78
58769;BME280;44536;47.474;19.056;2022-10-04T12:48:51;101028.03;;;23.21;38.94
58769;BME280;44536;47.474;19.056;2022-10-04T12:58:25;101029.69;;;22.53;39.36
58769;BME280;44536;47.474;19.056;2022-10-04T13:01:35;101021.78;;;21.73;40.71
58769;BME280;44536;47.474;19.056;2022-10-04T13:04:47;101032.91;;;23.25;38.79
58769;BME280;44536;47.474;19.056;2022-10-04T13:14:13;101017.94;;;20.95;42.53
58769;BME280;44536;47.474;19.056;2022-10-04T13:17:28;101014.62;;;20.34;44.07
58769;BME280;44536;47.474;19.056;2022-10-04T13:24:02;101020.81;;;20.69;43.90
58769;BME280;44536;47.474;19.056;2022-10-04T13:27:11;101013.34;;;21.68;41.08
58769;BME280;44536;47.474;19.056;2022-10-04T13:33:35;101014.00;;;22.26;40.06
58769;BME280;44536;47.474;19.056;2022-10-04T13:46:04;101023.34;;;22.07;38.99
58769;BME280;44536;47.474;19.056;2022-10-04T14:25:23;101053.75;;;17.25;50.17
58769;BME280;44536;47.474;19.056;2022-10-04T14:31:44;101048.56;;;16.85;51.67
58769;BME280;44536;47.474;19.056;2022-10-04T14:38:11;101054.22;;;16.92;53.01
58769;BME280;44536;47.474;19.056;2022-10-04T14:41:34;101063.22;;;16.91;53.41
58769;BME280;44536;47.474;19.056;2022-10-04T14:45:25;101059.63;;;16.51;53.29
58769;BME280;44536;47.474;19.056;2022-10-04T15:01:10;101077.19;;;15.95;55.25
58769;BME280;44536;47.474;19.056;2022-10-04T15:07:43;101084.84;;;15.78;56.88
58769;BME280;44536;47.474;19.056;2022-10-04T15:10:48;101091.88;;;15.79;56.33
58769;BME280;44536;47.474;19.056;2022-10-04T15:13:53;101086.09;;;15.53;55.54
58769;BME280;44536;47.474;19.056;2022-10-04T15:16:58;101087.13;;;15.41;55.87
58769;BME280;44536;47.474;19.056;2022-10-04T15:20:05;101089.34;;;15.36;55.37
58769;BME280;44536;47.474;19.056;2022-10-04T15:29:22;101098.19;;;15.16;55.37
58769;BME280;44536;47.474;19.056;2022-10-04T15:35:49;101099.81;;;15.07;56.37
58769;BME280;44536;47.474;19.056;2022-10-04T15:38:55;101107.03;;;14.96;57.39
58769;BME280;44536;47.474;19.056;2022-10-04T15:48:30;101115.09;;;14.62;60.44
58769;BME280;44536;47.474;19.056;2022-10-04T16:11:02;101146.16;;;14.07;65.63
58769;BME280;44536;47.474;19.056;2022-10-04T16:21:04;101151.63;;;13.95;65.86
58769;BME280;44536;47.474;19.056;2022-10-04T16:33:36;101162.75;;;13.53;67.69
58769;BME280;44536;47.474;19.056;2022-10-04T16:36:55;101155.28;;;13.58;67.44
58769;BME280;44536;47.474;19.056;2022-10-04T16:43:22;101165.31;;;13.20;69.40
58769;BME280;44536;47.474;19.056;2022-10-04T16:46:30;101162.63;;;13.20;69.63
58769;BME280;44536;47.474;19.056;2022-10-04T16:56:29;101179.59;;;13.19;70.28
58769;BME280;44536;47.474;19.056;2022-10-04T17:02:51;101182.97;;;13.21;70.57
58769;BME280;44536;47.474;19.056;2022-10-04T17:06:01;101187.81;;;13.03;71.34
58769;BME280;44536;47.474;19.056;2022-10-04T17:09:32;101188.53;;;13.05;71.49
58769;BME280;44536;47.474;19.056;2022-10-04T17:22:44;101196.28;;;12.97;72.20
58769;BME280;44536;47.474;19.056;2022-10-04T17:29:21;101210.06;;;12.78;73.31
58769;BME280;44536;47.474;19.056;2022-10-04T17:39:37;101220.81;;;12.77;74.22
58769;BME280;44536;47.474;19.056;2022-10-04T17:48:26;101230.72;;;12.75;74.51
58769;BME280;44536;47.474;19.056;2022-10-04T17:51:48;101222.44;;;12.54;76.26
58769;BME280;44536;47.474;19.056;2022-10-04T17:55:12;101237.53;;;12.53;76.32
58769;BME280;44536;47.474;19.056;2022-10-04T17:58:18;101230.34;;;12.43;76.22
58769;BME280;44536;47.474;19.056;2022-10-04T18:01:25;101237.56;;;12.41;76.36
58769;BME280;44536;47.474;19.056;2022-10-04T18:04:31;101237.53;;;12.53;75.44
58769;BME280;44536;47.474;19.056;2022-10-04T18:07:40;101239.97;;;12.56;74.77
58769;BME280;44536;47.474;19.056;2022-10-04T18:10:46;101238.81;;;12.73;73.76
58769;BME280;44536;47.474;19.056;2022-10-04T18:13:56;101246.03;;;12.71;73.76
58769;BME280;44536;47.474;19.056;2022-10-04T18:17:44;101251.69;;;12.67;73.59
58769;BME280;44536;47.474;19.056;2022-10-04T18:20:27;101245.84;;;12.62;73.83
58769;BME280;44536;47.474;19.056;2022-10-04T18:23:35;101234.22;;;12.63;73.48
58769;BME280;44536;47.474;19.056;2022-10-04T18:26:40;101244.03;;;12.62;73.79
58769;BME280;44536;47.474;19.056;2022-10-04T18:33:03;101260.75;;;12.39;75.16
58769;BME280;44536;47.474;19.056;2022-10-04T18:36:21;101251.38;;;12.20;76.02
58769;BME280;44536;47.474;19.056;2022-10-04T18:39:42;101254.59;;;12.25;75.26
58769;BME280;44536;47.474;19.056;2022-10-04T18:42:49;101254.03;;;12.20;75.20
58769;BME280;44536;47.474;19.056;2022-10-04T18:45:58;101262.97;;;12.19;75.59
58769;BME280;44536;47.474;19.056;2022-10-04T18:49:17;101268.09;;;12.22;74.66
58769;BME280;44536;47.474;19.056;2022-10-04T18:58:51;101282.03;;;12.26;73.86
58769;BME280;44536;47.474;19.056;2022-10-04T19:02:24;101283.84;;;12.25;73.34
58769;BME280;44536;47.474;19.056;2022-10-04T19:08:50;101299.03;;;12.23;73.38
58769;BME280;44536;47.474;19.056;2022-10-04T19:12:01;101302.72;;;11.96;75.52
58769;BME280;44536;47.474;19.056;2022-10-04T19:31:00;101307.03;;;11.84;74.74
58769;BME280;44536;47.474;19.056;2022-10-04T19:34:08;101317.16;;;11.91;74.06
58769;BME280;44536;47.474;19.056;2022-10-04T19:37:26;101315.03;;;11.84;75.03
58769;BME280;44536;47.474;19.056;2022-10-04T19:40:37;101331.06;;;11.82;74.81
58769;BME280;44536;47.474;19.056;2022-10-04T19:50:21;101335.16;;;11.33;77.48
58769;BME280;44536;47.474;19.056;2022-10-04T19:53:28;101332.16;;;11.24;77.81
58769;BME280;44536;47.474;19.056;2022-10-04T19:56:38;101327.97;;;11.35;77.68
58769;BME280;44536;47.474;19.056;2022-10-04T19:59:44;101344.25;;;11.43;77.58
58769;BME280;44536;47.474;19.056;2022-10-04T20:02:49;101346.75;;;11.32;77.54
58769;BME280;44536;47.474;19.056;2022-10-04T20:05:52;101348.34;;;11.20;78.38
58769;BME280;44536;47.474;19.056;2022-10-04T20:08:55;101352.53;;;11.24;78.74
58769;BME280;44536;47.474;19.056;2022-10-04T20:12:04;101343.62;;;11.25;78.70
58769;BME280;44536;47.474;19.056;2022-10-04T20:21:35;101356.16;;;10.80;81.11
58769;BME280;44536;47.474;19.056;2022-10-04T20:30:48;101371.84;;;10.55;82.49
58769;BME280;44536;47.474;19.056;2022-10-04T20:33:52;101365.09;;;10.49;82.82
58769;BME280;44536;47.474;19.056;2022-10-04T20:36:54;101360.75;;;10.48;83.53
58769;BME280;44536;47.474;19.056;2022-10-04T20:39:56;101364.34;;;10.47;82.99
58769;BME280;44536;47.474;19.056;2022-10-04T20:43:22;101373.31;;;10.45;83.14
58769;BME280;44536;47.474;19.056;2022-10-04T20:46:25;101367.69;;;10.65;81.86
58769;BME280;44536;47.474;19.056;2022-10-04T20:49:28;101370.56;;;10.76;81.31
58769;BME280;44536;47.474;19.056;2022-10-04T20:52:31;101375.81;;;10.62;82.98
58769;BME280;44536;47.474;19.056;2022-10-04T20:55:35;101381.06;;;10.92;80.56
58769;BME280;44536;47.474;19.056;2022-10-04T20:58:37;101385.16;;;11.12;79.61
58769;BME280;44536;47.474;19.056;2022-10-04T21:01:41;101384.56;;;11.21;79.00
58769;BME280;44536;47.474;19.056;2022-10-04T21:04:46;101389.69;;;11.24;78.36
58769;BME280;44536;47.474;19.056;2022-10-04T21:11:43;101388.00;;;11.23;78.74
58769;BME280;44536;47.474;19.056;2022-10-04T21:14:59;101392.91;;;11.15;79.07
58769;BME280;44536;47.474;19.056;2022-10-04T21:18:02;101391.19;;;11.00;79.84
58769;BME280;44536;47.474;19.056;2022-10-04T21:21:06;101391.38;;;10.68;82.22
58769;BME280;44536;47.474;19.056;2022-10-04T21:27:36;101399.37;;;10.38;84.19
58769;BME280;44536;47.474;19.056;2022-10-04T21:30:39;101405.97;;;10.15;85.96
58769;BME280;44536;47.474;19.056;2022-10-04T21:33:41;101406.94;;;9.99;86.93
58769;BME280;44536;47.474;19.056;2022-10-04T21:36:43;101408.38;;;9.88;87.60
58769;BME280;44536;47.474;19.056;2022-10-04T21:39:46;101410.03;;;9.75;88.31
58769;BME280;44536;47.474;19.056;2022-10-04T21:42:48;101414.31;;;9.78;88.84
58769;BME280;44536;47.474;19.056;2022-10-04T21:45:50;101417.81;;;9.78;89.11
58769;BME280;44536;47.474;19.056;2022-10-04T21:48:52;101414.31;;;9.62;90.81
58769;BME280;44536;47.474;19.056;2022-10-04T21:51:55;101423.16;;;9.45;91.98
58769;BME280;44536;47.474;19.056;2022-10-04T21:54:57;101418.03;;;9.42;91.62
58769;BME280;44536;47.474;19.056;2022-10-04T21:57:59;101423.00;;;9.33;92.37
58769;BME280;44536;47.474;19.056;2022-10-04T22:01:01;101425.12;;;9.26;93.28
58769;BME280;44536;47.474;19.056;2022-10-04T22:04:03;101432.91;;;9.29;92.82
58769;BME280;44536;47.474;19.056;2022-10-04T22:07:05;101440.75;;;9.31;93.22
58769;BME280;44536;47.474;19.056;2022-10-04T22:10:07;101440.25;;;9.07;94.53
58769;BME280;44536;47.474;19.056;2022-10-04T22:13:09;101440.66;;;8.99;95.11
58769;BME280;44536;47.474;19.056;2022-10-04T22:16:12;101430.97;;;9.15;94.63
58769;BME280;44536;47.474;19.056;2022-10-04T22:19:14;101436.28;;;8.98;94.96
58769;BME280;44536;47.474;19.056;2022-10-04T22:22:16;101448.44;;;8.85;95.63
58769;BME280;44536;47.474;19.056;2022-10-04T22:25:19;101443.25;;;8.83;96.11
58769;BME280;44536;47.474;19.056;2022-10-04T22:28:23;101440.00;;;8.78;96.35
58769;BME280;44536;47.474;19.056;2022-10-04T22:31:27;101444.94;;;8.84;96.17
58769;BME280;44536;47.474;19.056;2022-10-04T22:34:29;101452.72;;;8.87;95.71
58769;BME280;44536;47.474;19.056;2022-10-04T22:37:31;101452.12;;;8.82;95.76
58769;BME280;44536;47.474;19.056;2022-10-04T22:40:34;101448.78;;;8.79;96.09
58769;BME280;44536;47.474;19.056;2022-10-04T22:43:37;101446.50;;;8.88;96.33
58769;BME280;44536;47.474;19.056;2022-10-04T22:46:41;101454.03;;;8.96;95.83
58769;BME280;44536;47.474;19.056;2022-10-04T22:49:44;101460.22;;;8.79;97.32
58769;BME280;44536;47.474;19.056;2022-10-04T22:52:47;101467.28;;;8.61;100.00
58769;BME280;44536;47.474;19.056;2022-10-04T22:55:50;101458.25;;;8.48;100.00
58769;BME280;44536;47.474;19.056;2022-10-04T22:58:58;101461.66;;;8.33;100.00
58769;BME280;44536;47.474;19.056;2022-10-04T23:02:04;101459.22;;;8.28;100.00
58769;BME280;44536;47.474;19.056;2022-10-04T23:05:14;101452.22;;;8.27;100.00
58769;BME280;44536;47.474;19.056;2022-10-04T23:08:17;101463.94;;;8.22;100.00
58769;BME280;44536;47.474;19.056;2022-10-04T23:11:19;101467.37;;;8.24;100.00
58769;BME280;44536;47.474;19.056;2022-10-04T23:14:21;101466.16;;;8.31;100.00
58769;BME280;44536;47.474;19.056;2022-10-04T23:17:24;101470.81;;;8.26;100.00
58769;BME280;44536;47.474;19.056;2022-10-04T23:20:27;101472.22;;;8.33;100.00
58769;BME280;44536;47.474;19.056;2022-10-04T23:23:29;101485.34;;;8.35;100.00
58769;BME280;44536;47.474;19.056;2022-10-04T23:26:36;101485.25;;;8.19;100.00
58769;BME280;44536;47.474;19.056;2022-10-04T23:29:39;101486.88;;;8.21;100.00
58769;BME280;44536;47.474;19.056;2022-10-04T23:32:42;101478.38;;;8.15;100.00
58769;BME280;44536;47.474;19.056;2022-10-04T23:35:45;101488.25;;;8.11;100.00
58769;BME280;44536;47.474;19.056;2022-10-04T23:38:48;101494.25;;;7.96;100.00
58769;BME280;44536;47.474;19.056;2022-10-04T23:41:53;101500.97;;;8.03;100.00
58769;BME280;44536;47.474;19.056;2022-10-04T23:44:56;101490.97;;;7.91;100.00
58769;BME280;44536;47.474;19.056;2022-10-04T23:47:58;101492.97;;;7.86;100.00
58769;BME280;44536;47.474;19.056;2022-10-04T23:51:01;101501.59;;;7.89;100.00
58769;BME280;44536;47.474;19.056;2022-10-04T23:54:04;101501.37;;;7.94;100.00
58769;BME280;44536;47.474;19.056;2022-10-04T23:57:09;101504.75;;;7.79;100.00
